Time;durP1;ratioP1;P1;durP2;ratioP2;P2;SDS_P1;SDS_P2;PMS_P1;PMS_P2;Temp;Humidity;BMP_temperature;BMP_pressure;BME280_temperature;BME280_humidity;BME280_pressure;Samples;Min_cycle;Max_cycle;Signal;HPM_P1;HPM_P2
2021/09/25 00:00:36;;;;;;;2.30;2.10;;;;;;;;;;5051791;28;20444;-78
2021/09/25 00:03:04;;;;;;;2.60;2.00;;;;;;;;;;5052374;28;20949;-78
2021/09/25 00:05:32;;;;;;;2.33;2.00;;;;;;;;;;5049408;28;20936;-75
2021/09/25 00:08:00;;;;;;;1.90;1.80;;;;;;;;;;5032515;28;20465;-76
2021/09/25 00:10:28;;;;;;;2.20;2.00;;;;;;;;;;5032799;28;20490;-78
2021/09/25 00:12:56;;;;;;;3.00;2.60;;;;;;;;;;5034023;28;20449;-79
2021/09/25 00:15:27;;;;;;;1.90;1.80;;;;;;;;;;5031069;28;20439;-76
2021/09/25 00:17:54;;;;;;;2.17;1.97;;;;;;;;;;5023824;28;20840;-75
2021/09/25 00:20:21;;;;;;;2.60;2.40;;;;;;;;;;5044183;28;20477;-80
2021/09/25 00:22:49;;;;;;;2.67;2.20;;;;;;;;;;5051775;28;20448;-79
2021/09/25 00:25:16;;;;;;;2.70;2.40;;;;;;;;;;5051684;28;20787;-76
2021/09/25 00:27:43;;;;;;;2.60;2.40;;;;;;;;;;5048265;28;20462;-79
2021/09/25 00:30:11;;;;;;;2.60;2.03;;;;;;;;;;5034147;28;20512;-75
2021/09/25 00:32:40;;;;;;;3.63;2.17;;;;;;;;;;5049180;28;20446;-76
2021/09/25 00:35:08;;;;;;;5.53;2.97;;;;;;;;;;5033674;28;20438;-77
2021/09/25 00:37:35;;;;;;;2.43;2.23;;;;;;;;;;5031915;28;20438;-74
2021/09/25 00:40:02;;;;;;;3.60;2.60;;;;;;;;;;5034054;28;20454;-76
2021/09/25 00:42:29;;;;;;;2.43;2.23;;;;;;;;;;5031622;28;20465;-74
2021/09/25 00:44:56;;;;;;;3.40;2.43;;;;;;;;;;5031502;28;20481;-78
2021/09/25 00:47:24;;;;;;;2.37;2.17;;;;;;;;;;5031523;28;20465;-79
2021/09/25 00:49:52;;;;;;;2.93;2.50;;;;;;;;;;5031517;28;20490;-76
2021/09/25 00:52:19;;;;;;;3.30;2.73;;;;;;;;;;5033680;28;20449;-79
2021/09/25 00:54:46;;;;;;;3.13;2.50;;;;;;;;;;5033688;28;20424;-79
2021/09/25 00:57:14;;;;;;;6.13;2.63;;;;;;;;;;5033427;28;20438;-80
2021/09/25 00:59:41;;;;;;;3.70;2.43;;;;;;;;;;5027417;28;20454;-74
2021/09/25 01:02:10;;;;;;;3.10;2.80;;;;;;;;;;5028475;28;20423;-75
2021/09/25 01:04:37;;;;;;;2.67;2.10;;;;;;;;;;5031148;28;20857;-74
2021/09/25 01:07:06;;;;;;;4.00;2.30;;;;;;;;;;5030977;28;20443;-75
2021/09/25 01:09:33;;;;;;;2.57;2.30;;;;;;;;;;5031217;28;20440;-76
2021/09/25 01:12:01;;;;;;;2.93;2.33;;;;;;;;;;5031584;28;20454;-79
2021/09/25 01:14:30;;;;;;;3.80;2.57;;;;;;;;;;5033373;28;20481;-75
2021/09/25 01:17:03;;;;;;;3.50;2.60;;;;;;;;;;5033259;28;20525;-76
2021/09/25 01:19:30;;;;;;;2.50;2.30;;;;;;;;;;5050455;28;20462;-77
2021/09/25 01:21:59;;;;;;;3.93;2.57;;;;;;;;;;5031204;28;20800;-80
2021/09/25 01:24:26;;;;;;;3.53;2.77;;;;;;;;;;5032534;28;20450;-79
2021/09/25 01:26:53;;;;;;;3.67;2.80;;;;;;;;;;5035176;28;20434;-75
2021/09/25 01:29:21;;;;;;;2.40;2.20;;;;;;;;;;5034914;28;20470;-76
2021/09/25 01:31:48;;;;;;;3.47;2.43;;;;;;;;;;5035137;28;20954;-77
2021/09/25 01:34:15;;;;;;;2.73;2.53;;;;;;;;;;5038505;28;20934;-75
2021/09/25 01:36:42;;;;;;;3.57;2.60;;;;;;;;;;5057137;28;20433;-76
2021/09/25 01:39:11;;;;;;;3.03;2.83;;;;;;;;;;5056980;28;20476;-76
2021/09/25 01:41:38;;;;;;;2.40;2.20;;;;;;;;;;5052141;28;20803;-76
2021/09/25 01:44:05;;;;;;;4.63;2.67;;;;;;;;;;5030620;28;20994;-78
2021/09/25 01:46:32;;;;;;;3.17;2.53;;;;;;;;;;5032073;28;20442;-78
2021/09/25 01:48:59;;;;;;;2.47;2.17;;;;;;;;;;5034683;28;20453;-78
2021/09/25 01:51:26;;;;;;;3.43;3.10;;;;;;;;;;5034761;28;20500;-79
2021/09/25 01:53:54;;;;;;;2.57;2.37;;;;;;;;;;5034764;28;20961;-77
2021/09/25 01:56:22;;;;;;;4.10;2.70;;;;;;;;;;5039026;28;20459;-78
2021/09/25 01:58:49;;;;;;;3.47;2.83;;;;;;;;;;5056754;28;20526;-76
2021/09/25 02:01:16;;;;;;;3.30;3.00;;;;;;;;;;5060035;28;20803;-74
2021/09/25 02:03:44;;;;;;;3.33;2.57;;;;;;;;;;5051964;28;20437;-77
2021/09/25 02:06:12;;;;;;;3.20;2.43;;;;;;;;;;5030252;28;20559;-77
2021/09/25 02:08:40;;;;;;;3.10;2.80;;;;;;;;;;5008145;28;20450;-77
2021/09/25 02:11:07;;;;;;;4.13;2.90;;;;;;;;;;5015058;28;20500;-74
2021/09/25 02:13:36;;;;;;;4.03;2.80;;;;;;;;;;5034082;28;20803;-76
2021/09/25 02:16:04;;;;;;;2.97;2.67;;;;;;;;;;5034523;28;20438;-78
2021/09/25 02:18:31;;;;;;;3.67;3.00;;;;;;;;;;5040395;28;20530;-73
2021/09/25 02:20:58;;;;;;;4.57;3.30;;;;;;;;;;5055968;28;20805;-78
2021/09/25 02:23:25;;;;;;;3.20;2.53;;;;;;;;;;5056327;28;20445;-75
2021/09/25 02:25:53;;;;;;;3.00;2.53;;;;;;;;;;5032312;28;20436;-77
2021/09/25 02:28:21;;;;;;;3.10;2.80;;;;;;;;;;5039924;28;20443;-78
2021/09/25 02:30:49;;;;;;;2.73;2.50;;;;;;;;;;5046312;28;20815;-80
2021/09/25 02:33:17;;;;;;;3.30;3.00;;;;;;;;;;5053797;28;20817;-76
2021/09/25 02:35:44;;;;;;;5.07;3.47;;;;;;;;;;5053738;28;20444;-77
2021/09/25 02:38:11;;;;;;;21.87;4.33;;;;;;;;;;5053826;28;20451;-74
2021/09/25 02:40:39;;;;;;;3.30;2.97;;;;;;;;;;5051622;28;20492;-80
2021/09/25 02:43:06;;;;;;;3.87;2.77;;;;;;;;;;5038399;28;20440;-75
2021/09/25 02:45:34;;;;;;;3.00;2.80;;;;;;;;;;5038022;28;20930;-77
2021/09/25 02:48:03;;;;;;;3.40;3.10;;;;;;;;;;5054027;28;20479;-79
2021/09/25 02:50:31;;;;;;;3.83;2.93;;;;;;;;;;5049397;28;20487;-75
2021/09/25 02:52:58;;;;;;;3.30;3.00;;;;;;;;;;5050921;28;20443;-74
2021/09/25 02:55:25;;;;;;;3.37;3.07;;;;;;;;;;5053330;28;20437;-77
2021/09/25 02:57:52;;;;;;;3.13;2.83;;;;;;;;;;5035969;28;21070;-78
2021/09/25 03:00:21;;;;;;;3.50;3.20;;;;;;;;;;5053547;28;20464;-75
2021/09/25 03:02:48;;;;;;;3.60;3.27;;;;;;;;;;5054126;28;20453;-76
2021/09/25 03:05:17;;;;;;;3.20;3.00;;;;;;;;;;5055532;28;20440;-76
2021/09/25 03:07:44;;;;;;;3.43;3.07;;;;;;;;;;5055468;28;20814;-78
2021/09/25 03:10:11;;;;;;;3.27;2.80;;;;;;;;;;5048137;28;20459;-79
2021/09/25 03:12:39;;;;;;;3.60;3.30;;;;;;;;;;5019274;28;20433;-77
2021/09/25 03:15:09;;;;;;;3.70;3.03;;;;;;;;;;5029561;28;20452;-77
2021/09/25 03:17:37;;;;;;;3.10;2.70;;;;;;;;;;5053585;28;20451;-76
2021/09/25 03:20:04;;;;;;;3.43;2.90;;;;;;;;;;5056318;28;20480;-76
2021/09/25 03:22:33;;;;;;;3.90;3.37;;;;;;;;;;5056812;28;20447;-76
2021/09/25 03:25:00;;;;;;;3.93;3.13;;;;;;;;;;5045651;28;20457;-77
2021/09/25 03:27:27;;;;;;;3.50;3.20;;;;;;;;;;5035910;28;20849;-78
2021/09/25 03:29:55;;;;;;;4.37;3.20;;;;;;;;;;5035451;28;20458;-77
2021/09/25 03:32:22;;;;;;;3.40;3.10;;;;;;;;;;5034891;28;20484;-78
2021/09/25 03:34:49;;;;;;;3.47;3.17;;;;;;;;;;5031296;28;20442;-76
2021/09/25 03:37:16;;;;;;;4.00;2.87;;;;;;;;;;5031898;28;20448;-78
2021/09/25 03:39:44;;;;;;;4.00;3.60;;;;;;;;;;5033900;28;20486;-82
2021/09/25 03:42:12;;;;;;;3.90;3.60;;;;;;;;;;5032510;28;20468;-76
2021/09/25 03:44:39;;;;;;;4.07;3.77;;;;;;;;;;5032939;28;20447;-76
2021/09/25 03:47:06;;;;;;;3.37;2.83;;;;;;;;;;5033288;28;20459;-79
2021/09/25 03:49:33;;;;;;;4.17;3.20;;;;;;;;;;5034665;28;20473;-79
2021/09/25 03:52:00;;;;;;;3.60;3.10;;;;;;;;;;5034740;28;20496;-82
2021/09/25 03:54:27;;;;;;;3.30;3.00;;;;;;;;;;5032369;28;20445;-77
2021/09/25 03:56:56;;;;;;;4.17;3.07;;;;;;;;;;5032374;28;20432;-78
2021/09/25 03:59:23;;;;;;;3.53;3.00;;;;;;;;;;5034180;28;20461;-79
2021/09/25 04:01:50;;;;;;;6.00;3.23;;;;;;;;;;5032091;28;20454;-77
2021/09/25 04:04:17;;;;;;;3.47;2.90;;;;;;;;;;5032503;28;20440;-75
2021/09/25 04:06:44;;;;;;;4.77;3.10;;;;;;;;;;5032581;28;20441;-77
2021/09/25 04:09:12;;;;;;;4.00;3.10;;;;;;;;;;5032944;28;20485;-75
2021/09/25 04:11:39;;;;;;;3.40;2.70;;;;;;;;;;5034358;28;20483;-79
2021/09/25 04:14:07;;;;;;;3.90;3.17;;;;;;;;;;5034156;28;20921;-79
2021/09/25 04:16:34;;;;;;;3.90;2.93;;;;;;;;;;5031700;28;20432;-76
2021/09/25 04:19:01;;;;;;;4.10;3.70;;;;;;;;;;5037362;28;20787;-76
2021/09/25 04:21:29;;;;;;;4.90;3.83;;;;;;;;;;5050386;28;20438;-75
2021/09/25 04:23:57;;;;;;;4.87;3.53;;;;;;;;;;5051579;28;20442;-79
2021/09/25 04:26:24;;;;;;;3.53;3.23;;;;;;;;;;5051893;28;20499;-77
2021/09/25 04:28:51;;;;;;;3.80;3.10;;;;;;;;;;5051985;28;20445;-79
2021/09/25 04:31:19;;;;;;;3.90;3.50;;;;;;;;;;5052345;28;20491;-80
2021/09/25 04:33:46;;;;;;;3.50;3.20;;;;;;;;;;5053978;28;20540;-76
2021/09/25 04:36:14;;;;;;;4.83;3.20;;;;;;;;;;5053903;28;20462;-77
2021/09/25 04:38:41;;;;;;;3.60;3.30;;;;;;;;;;5050957;28;20442;-77
2021/09/25 04:41:08;;;;;;;3.23;2.93;;;;;;;;;;5047332;28;20454;-78
2021/09/25 04:43:35;;;;;;;3.90;3.40;;;;;;;;;;5028374;28;20783;-80
2021/09/25 04:46:02;;;;;;;3.77;3.30;;;;;;;;;;5049074;28;20808;-77
2021/09/25 04:48:31;;;;;;;4.43;3.53;;;;;;;;;;5051616;28;20456;-79
2021/09/25 04:50:58;;;;;;;4.90;3.80;;;;;;;;;;5051446;28;20487;-79
2021/09/25 04:53:25;;;;;;;3.70;3.40;;;;;;;;;;5051819;28;20463;-79
2021/09/25 04:55:52;;;;;;;6.53;3.80;;;;;;;;;;5054113;28;20443;-76
2021/09/25 04:58:23;;;;;;;3.93;3.63;;;;;;;;;;5053966;28;20479;-77
2021/09/25 05:00:50;;;;;;;5.07;3.90;;;;;;;;;;5050336;28;20453;-81
2021/09/25 05:03:17;;;;;;;4.93;4.00;;;;;;;;;;5047157;28;20433;-76
2021/09/25 05:05:45;;;;;;;4.30;3.90;;;;;;;;;;5049108;28;20433;-78
2021/09/25 05:08:13;;;;;;;4.67;4.00;;;;;;;;;;5050978;28;20430;-76
2021/09/25 05:10:40;;;;;;;5.20;4.23;;;;;;;;;;5050835;28;20466;-75
2021/09/25 05:13:07;;;;;;;4.27;3.87;;;;;;;;;;5051477;28;20791;-78
2021/09/25 05:15:34;;;;;;;4.20;3.50;;;;;;;;;;5052081;28;20441;-77
2021/09/25 05:18:01;;;;;;;4.40;4.00;;;;;;;;;;5053459;28;20445;-76
2021/09/25 05:20:28;;;;;;;4.97;4.53;;;;;;;;;;5053106;28;21005;-79
2021/09/25 05:22:57;;;;;;;4.30;3.70;;;;;;;;;;5040261;28;20436;-74
2021/09/25 05:25:24;;;;;;;5.10;4.60;;;;;;;;;;5027005;28;20443;-75
2021/09/25 05:27:51;;;;;;;5.70;3.93;;;;;;;;;;5029601;28;20439;-76
2021/09/25 05:30:18;;;;;;;5.23;4.70;;;;;;;;;;5030960;28;20463;-77
2021/09/25 05:32:46;;;;;;;4.50;4.10;;;;;;;;;;5027579;28;20480;-77
2021/09/25 05:35:13;;;;;;;6.37;4.90;;;;;;;;;;5027595;28;20467;-78
2021/09/25 05:37:40;;;;;;;4.73;4.23;;;;;;;;;;5030445;28;20462;-76
2021/09/25 05:40:10;;;;;;;5.47;4.90;;;;;;;;;;5025349;28;20481;-75
2021/09/25 05:42:37;;;;;;;4.40;3.83;;;;;;;;;;5027210;28;20454;-77
2021/09/25 05:45:04;;;;;;;5.37;4.77;;;;;;;;;;5048860;28;20436;-75
2021/09/25 05:47:31;;;;;;;4.80;4.27;;;;;;;;;;5045626;28;20471;-76
2021/09/25 05:49:58;;;;;;;4.80;4.20;;;;;;;;;;5030934;28;20539;-79
2021/09/25 05:52:25;;;;;;;5.07;4.57;;;;;;;;;;5029357;28;20491;-76
2021/09/25 05:54:53;;;;;;;5.93;5.37;;;;;;;;;;5032269;28;20434;-77
2021/09/25 05:57:21;;;;;;;5.00;4.47;;;;;;;;;;5031602;28;20458;-76
2021/09/25 05:59:48;;;;;;;4.87;4.37;;;;;;;;;;5031861;28;20479;-75
2021/09/25 06:02:15;;;;;;;4.77;4.23;;;;;;;;;;5025834;28;20453;-76
2021/09/25 06:04:42;;;;;;;5.40;4.90;;;;;;;;;;5027081;28;20795;-75
2021/09/25 06:07:11;;;;;;;5.50;4.33;;;;;;;;;;5032720;28;20459;-75
2021/09/25 06:09:38;;;;;;;5.90;5.00;;;;;;;;;;5035567;28;20633;-76
2021/09/25 06:12:06;;;;;;;4.83;4.33;;;;;;;;;;5034910;28;20869;-79
2021/09/25 06:14:35;;;;;;;5.00;4.23;;;;;;;;;;5040993;28;20462;-75
2021/09/25 06:17:02;;;;;;;5.33;4.47;;;;;;;;;;5037773;28;20433;-78
2021/09/25 06:19:29;;;;;;;4.90;4.40;;;;;;;;;;5061242;28;20475;-78
2021/09/25 06:21:56;;;;;;;11.00;4.70;;;;;;;;;;5076277;28;20782;-82
2021/09/25 06:24:23;;;;;;;5.87;3.90;;;;;;;;;;5043824;28;20795;-79
2021/09/25 06:26:51;;;;;;;5.10;4.60;;;;;;;;;;5037881;28;20434;-75
2021/09/25 06:29:18;;;;;;;7.20;4.60;;;;;;;;;;5053092;28;20457;-79
2021/09/25 06:31:46;;;;;;;4.80;4.27;;;;;;;;;;5053801;28;20480;-78
2021/09/25 06:34:13;;;;;;;6.40;4.70;;;;;;;;;;5053746;28;20532;-77
2021/09/25 06:36:41;;;;;;;6.10;4.40;;;;;;;;;;5049769;28;20927;-76
2021/09/25 06:39:09;;;;;;;4.03;3.63;;;;;;;;;;5053649;28;20531;-75
2021/09/25 06:41:36;;;;;;;5.23;4.70;;;;;;;;;;5037301;28;20461;-77
2021/09/25 06:44:03;;;;;;;5.50;4.47;;;;;;;;;;5052738;28;20461;-79
2021/09/25 06:46:30;;;;;;;6.03;4.80;;;;;;;;;;5028303;28;20449;-77
2021/09/25 06:48:59;;;;;;;5.10;4.60;;;;;;;;;;5036638;28;20449;-78
2021/09/25 06:51:27;;;;;;;5.20;4.70;;;;;;;;;;5045413;28;20480;-77
2021/09/25 06:53:54;;;;;;;4.77;4.37;;;;;;;;;;5053460;28;20474;-77
2021/09/25 06:56:21;;;;;;;5.80;5.30;;;;;;;;;;5051272;28;20444;-77
2021/09/25 06:58:49;;;;;;;7.70;4.77;;;;;;;;;;5047284;28;20820;-78
2021/09/25 07:01:16;;;;;;;6.30;4.43;;;;;;;;;;5050525;28;20815;-78
2021/09/25 07:03:43;;;;;;;5.47;4.60;;;;;;;;;;5037688;28;20455;-76
2021/09/25 07:06:12;;;;;;;5.37;4.30;;;;;;;;;;5039858;28;20441;-77
2021/09/25 07:08:39;;;;;;;5.43;4.57;;;;;;;;;;5046167;28;21140;-78
2021/09/25 07:11:06;;;;;;;5.70;4.33;;;;;;;;;;5051745;28;20454;-80
2021/09/25 07:13:34;;;;;;;5.63;4.67;;;;;;;;;;5046227;28;20864;-78
2021/09/25 07:16:01;;;;;;;5.43;5.03;;;;;;;;;;5050018;28;20460;-77
2021/09/25 07:18:28;;;;;;;5.27;4.27;;;;;;;;;;5045221;28;20440;-78
2021/09/25 07:20:55;;;;;;;6.50;4.33;;;;;;;;;;5029988;28;20489;-77
2021/09/25 07:23:23;;;;;;;5.63;4.90;;;;;;;;;;5033574;28;20458;-78
2021/09/25 07:25:51;;;;;;;4.90;4.37;;;;;;;;;;5022890;28;20709;-78
2021/09/25 07:28:18;;;;;;;5.27;4.77;;;;;;;;;;5031265;28;20458;-78
2021/09/25 07:30:48;;;;;;;5.10;4.60;;;;;;;;;;5032629;28;20493;-76
2021/09/25 07:33:16;;;;;;;5.00;4.50;;;;;;;;;;5032650;28;20850;-81
2021/09/25 07:35:44;;;;;;;5.80;5.20;;;;;;;;;;5034959;28;20438;-81
2021/09/25 07:38:11;;;;;;;5.90;4.70;;;;;;;;;;5034839;28;20453;-79
2021/09/25 07:40:39;;;;;;;5.17;4.67;;;;;;;;;;5031220;28;20466;-77
2021/09/25 07:43:07;;;;;;;5.10;4.70;;;;;;;;;;5037556;28;20454;-78
2021/09/25 07:45:34;;;;;;;6.07;4.90;;;;;;;;;;5029270;28;20458;-80
2021/09/25 07:48:02;;;;;;;5.67;5.13;;;;;;;;;;5031370;28;20445;-79
2021/09/25 07:50:29;;;;;;;5.43;4.93;;;;;;;;;;5032326;28;20461;-80
2021/09/25 07:52:57;;;;;;;6.80;5.30;;;;;;;;;;5014697;28;20494;-82
2021/09/25 07:55:25;;;;;;;4.77;4.37;;;;;;;;;;5022321;28;20462;-81
2021/09/25 07:57:53;;;;;;;5.07;4.57;;;;;;;;;;5035945;28;20444;-79
2021/09/25 08:00:21;;;;;;;5.47;4.30;;;;;;;;;;5033233;28;20796;-80
2021/09/25 08:02:48;;;;;;;9.20;5.00;;;;;;;;;;5014869;28;21165;-82
2021/09/25 08:05:20;;;;;;;5.03;4.50;;;;;;;;;;5031542;28;20802;-82
2021/09/25 08:07:47;;;;;;;4.47;4.07;;;;;;;;;;5031680;28;20449;-82
2021/09/25 08:10:15;;;;;;;5.50;4.10;;;;;;;;;;5031863;28;20556;-80
2021/09/25 08:12:42;;;;;;;5.37;4.73;;;;;;;;;;5037594;28;20479;-79
2021/09/25 08:15:24;;;;;;;4.70;4.27;;;;;;;;;;5045835;28;20444;-85
2021/09/25 08:17:53;;;;;;;3.77;3.47;;;;;;;;;;5052214;28;20496;-78
2021/09/25 08:20:21;;;;;;;5.10;4.23;;;;;;;;;;5051441;28;20487;-80
2021/09/25 08:22:48;;;;;;;5.33;4.80;;;;;;;;;;5052207;28;20445;-83
2021/09/25 08:25:16;;;;;;;4.20;3.80;;;;;;;;;;5037074;28;20549;-81
2021/09/25 08:27:43;;;;;;;4.87;4.37;;;;;;;;;;5029272;28;20450;-81
2021/09/25 08:30:13;;;;;;;4.13;3.80;;;;;;;;;;5032718;28;20991;-82
2021/09/25 08:32:40;;;;;;;5.20;4.17;;;;;;;;;;5034143;28;20477;-82
2021/09/25 08:35:08;;;;;;;5.27;4.80;;;;;;;;;;5036631;28;20512;-80
2021/09/25 08:37:35;;;;;;;4.23;3.83;;;;;;;;;;5046990;28;20445;-83
2021/09/25 08:40:06;;;;;;;5.77;4.27;;;;;;;;;;5051312;28;20457;-81
2021/09/25 08:42:33;;;;;;;4.60;4.20;;;;;;;;;;5051931;28;20785;-81
2021/09/25 08:45:01;;;;;;;4.23;3.93;;;;;;;;;;5051740;28;20437;-80
2021/09/25 08:47:29;;;;;;;4.20;3.70;;;;;;;;;;5039487;28;20860;-81
2021/09/25 08:49:56;;;;;;;4.40;4.00;;;;;;;;;;5033737;28;20466;-80
2021/09/25 08:52:24;;;;;;;4.33;3.93;;;;;;;;;;5033649;28;20473;-81
2021/09/25 08:54:51;;;;;;;4.63;3.60;;;;;;;;;;5031208;28;20426;-82
2021/09/25 08:57:18;;;;;;;4.27;3.87;;;;;;;;;;5032721;28;20501;-82
2021/09/25 08:59:45;;;;;;;6.20;3.73;;;;;;;;;;5032523;28;20462;-82
2021/09/25 09:02:13;;;;;;;7.43;4.50;;;;;;;;;;5031282;28;20438;-80
2021/09/25 09:04:43;;;;;;;4.37;3.97;;;;;;;;;;5031408;28;20874;-85
2021/09/25 09:07:13;;;;;;;4.10;3.67;;;;;;;;;;5031523;28;20779;-83
2021/09/25 09:09:43;;;;;;;6.47;4.73;;;;;;;;;;5014461;28;21029;-81
2021/09/25 09:12:10;;;;;;;5.17;4.70;;;;;;;;;;5016011;28;20481;-80
2021/09/25 09:14:43;;;;;;;5.93;4.53;;;;;;;;;;5033335;28;20437;-83
2021/09/25 09:17:10;;;;;;;4.40;3.83;;;;;;;;;;5029944;28;20430;-82
2021/09/25 09:19:38;;;;;;;4.97;3.80;;;;;;;;;;5032625;28;20468;-82
2021/09/25 09:22:06;;;;;;;3.53;3.23;;;;;;;;;;5049053;28;20437;-82
2021/09/25 09:24:42;;;;;;;5.83;4.07;;;;;;;;;;5050404;28;20449;-80
2021/09/25 09:27:14;;;;;;;4.83;4.30;;;;;;;;;;5050613;28;20447;-81
2021/09/25 09:29:41;;;;;;;4.60;3.83;;;;;;;;;;5029881;28;20466;-82
2021/09/25 09:32:09;;;;;;;4.00;3.43;;;;;;;;;;5049931;28;20460;-81
2021/09/25 09:34:37;;;;;;;3.57;3.27;;;;;;;;;;5046652;28;20441;-80
2021/09/25 09:37:13;;;;;;;6.43;3.30;;;;;;;;;;5047304;28;20459;-80
2021/09/25 09:39:40;;;;;;;3.23;2.90;;;;;;;;;;5050692;28;20951;-80
2021/09/25 09:42:08;;;;;;;3.97;3.43;;;;;;;;;;5054672;28;20783;-79
2021/09/25 09:44:35;;;;;;;3.70;3.40;;;;;;;;;;5054983;28;20449;-81
2021/09/25 09:47:03;;;;;;;3.70;3.20;;;;;;;;;;5055457;28;20547;-82
2021/09/25 09:49:31;;;;;;;5.40;3.43;;;;;;;;;;5056897;28;20463;-83
2021/09/25 09:51:59;;;;;;;4.87;3.73;;;;;;;;;;5039114;28;20445;-81
2021/09/25 09:54:28;;;;;;;4.53;3.63;;;;;;;;;;5055389;28;20425;-85
2021/09/25 09:56:57;;;;;;;3.63;3.30;;;;;;;;;;5050135;28;20425;-82
2021/09/25 09:59:24;;;;;;;3.37;3.07;;;;;;;;;;5029329;28;20465;-82
2021/09/25 10:01:51;;;;;;;4.90;3.73;;;;;;;;;;5033390;28;20442;-80
2021/09/25 10:04:19;;;;;;;3.67;3.37;;;;;;;;;;5054359;28;20452;-78
2021/09/25 10:06:47;;;;;;;2.93;2.60;;;;;;;;;;5054387;28;20453;-81
2021/09/25 10:09:15;;;;;;;4.00;3.43;;;;;;;;;;5055063;28;20465;-79
2021/09/25 10:11:48;;;;;;;3.87;3.50;;;;;;;;;;5056458;28;20800;-78
2021/09/25 10:14:16;;;;;;;5.33;3.57;;;;;;;;;;5038816;28;20564;-75
2021/09/25 10:16:44;;;;;;;4.50;3.67;;;;;;;;;;5054636;28;20441;-78
2021/09/25 10:19:12;;;;;;;3.30;3.00;;;;;;;;;;5049677;28;20595;-77
2021/09/25 10:21:39;;;;;;;3.80;3.37;;;;;;;;;;5050001;28;20462;-78
2021/09/25 10:24:09;;;;;;;3.03;2.77;;;;;;;;;;5046119;28;20446;-80
2021/09/25 10:26:36;;;;;;;4.20;3.80;;;;;;;;;;5050952;28;20816;-80
2021/09/25 10:29:06;;;;;;;5.47;4.23;;;;;;;;;;5054379;28;20527;-84
2021/09/25 10:31:35;;;;;;;3.83;3.40;;;;;;;;;;5051845;28;21008;-80
2021/09/25 10:34:06;;;;;;;3.93;3.63;;;;;;;;;;5048565;28;20481;-78
2021/09/25 10:36:37;;;;;;;3.77;3.47;;;;;;;;;;5050689;28;20452;-77
2021/09/25 10:39:16;;;;;;;2.97;2.77;;;;;;;;;;5053425;28;20429;-81
2021/09/25 10:41:43;;;;;;;7.43;3.53;;;;;;;;;;5052944;28;20449;-81
2021/09/25 10:44:25;;;;;;;4.07;3.70;;;;;;;;;;5053504;28;20527;-81
2021/09/25 10:46:53;;;;;;;3.53;3.23;;;;;;;;;;5036940;28;20461;-79
2021/09/25 10:49:20;;;;;;;3.90;3.50;;;;;;;;;;5055657;28;20461;-80
2021/09/25 10:51:49;;;;;;;3.73;3.43;;;;;;;;;;5053861;28;20961;-79
2021/09/25 10:54:16;;;;;;;5.50;3.17;;;;;;;;;;5053249;28;21115;-75
2021/09/25 10:56:47;;;;;;;4.17;3.77;;;;;;;;;;5048714;28;20432;-80
2021/09/25 10:59:15;;;;;;;4.93;3.83;;;;;;;;;;5033460;28;20515;-79
2021/09/25 11:01:44;;;;;;;3.60;3.30;;;;;;;;;;5051585;28;20451;-78
2021/09/25 11:04:12;;;;;;;3.70;3.30;;;;;;;;;;5052029;28;20456;-79
2021/09/25 11:06:40;;;;;;;3.83;3.30;;;;;;;;;;5051852;28;20433;-81
2021/09/25 11:09:09;;;;;;;3.80;3.40;;;;;;;;;;5064183;28;20855;-79
2021/09/25 11:11:38;;;;;;;4.20;3.50;;;;;;;;;;5066902;28;20962;-78
2021/09/25 11:14:08;;;;;;;3.87;3.50;;;;;;;;;;5037923;28;20571;-77
2021/09/25 11:16:50;;;;;;;4.77;4.27;;;;;;;;;;5053436;28;20481;-81
2021/09/25 11:19:32;;;;;;;4.20;3.57;;;;;;;;;;5047512;28;20472;-78
2021/09/25 11:22:02;;;;;;;5.47;3.70;;;;;;;;;;5021584;28;20462;-79
2021/09/25 11:24:30;;;;;;;4.33;3.60;;;;;;;;;;5035213;28;20445;-81
2021/09/25 11:26:57;;;;;;;4.47;3.93;;;;;;;;;;5051704;28;20449;-77
2021/09/25 11:29:24;;;;;;;4.73;3.40;;;;;;;;;;5053132;28;20454;-75
2021/09/25 11:31:52;;;;;;;5.03;3.60;;;;;;;;;;5052689;28;20548;-77
2021/09/25 11:34:21;;;;;;;6.20;3.67;;;;;;;;;;5028228;28;21373;-76
2021/09/25 11:36:50;;;;;;;3.73;3.27;;;;;;;;;;5016569;28;21009;-76
2021/09/25 11:39:22;;;;;;;3.90;3.37;;;;;;;;;;5049916;28;20461;-77
2021/09/25 11:42:04;;;;;;;3.97;3.60;;;;;;;;;;5052155;28;20436;-79
2021/09/25 11:44:41;;;;;;;3.70;3.40;;;;;;;;;;5035583;28;20457;-77
2021/09/25 11:47:08;;;;;;;3.60;3.30;;;;;;;;;;5049786;28;20449;-78
2021/09/25 11:49:35;;;;;;;5.87;3.60;;;;;;;;;;5047893;28;20477;-79
2021/09/25 11:52:02;;;;;;;3.50;3.20;;;;;;;;;;5046090;28;20480;-77
2021/09/25 11:54:33;;;;;;;3.50;3.20;;;;;;;;;;5050533;28;20488;-78
2021/09/25 11:57:00;;;;;;;4.67;3.23;;;;;;;;;;5051251;28;20811;-75
2021/09/25 11:59:27;;;;;;;4.03;3.23;;;;;;;;;;5049017;28;20469;-77
2021/09/25 12:01:54;;;;;;;4.03;3.57;;;;;;;;;;5038547;28;20430;-78
2021/09/25 12:04:37;;;;;;;4.10;3.40;;;;;;;;;;5061990;28;20460;-79
2021/09/25 12:07:05;;;;;;;4.10;3.00;;;;;;;;;;5046502;28;20433;-78
2021/09/25 12:09:47;;;;;;;5.10;3.93;;;;;;;;;;5028527;28;20995;-77
2021/09/25 12:12:15;;;;;;;3.50;3.00;;;;;;;;;;5034146;28;20441;-75
2021/09/25 12:14:43;;;;;;;3.57;3.23;;;;;;;;;;5051968;28;20489;-78
2021/09/25 12:17:13;;;;;;;3.20;2.90;;;;;;;;;;5033774;28;20450;-76
2021/09/25 12:19:40;;;;;;;3.20;2.77;;;;;;;;;;5044327;28;20853;-78
2021/09/25 12:22:08;;;;;;;3.20;2.80;;;;;;;;;;5034009;28;20442;-80
2021/09/25 12:24:36;;;;;;;3.77;3.10;;;;;;;;;;5034119;28;20446;-78
2021/09/25 12:27:03;;;;;;;2.83;2.53;;;;;;;;;;5031262;28;20449;-85
2021/09/25 12:29:34;;;;;;;3.03;2.50;;;;;;;;;;5028029;28;20453;-85
2021/09/25 12:32:02;;;;;;;2.50;2.30;;;;;;;;;;5010981;28;20992;-82
2021/09/25 12:34:29;;;;;;;3.23;2.67;;;;;;;;;;5010945;28;20478;-79
2021/09/25 12:36:59;;;;;;;3.57;2.80;;;;;;;;;;5026796;28;20528;-84
2021/09/25 12:39:27;;;;;;;2.50;2.30;;;;;;;;;;5029978;28;20470;-81
2021/09/25 12:41:55;;;;;;;2.27;2.07;;;;;;;;;;5030536;28;20488;-78
2021/09/25 12:44:23;;;;;;;3.10;2.77;;;;;;;;;;5005645;28;20455;-79
2021/09/25 12:46:53;;;;;;;2.77;2.57;;;;;;;;;;5005923;28;21247;-80
2021/09/25 12:49:22;;;;;;;2.20;2.00;;;;;;;;;;5028492;28;20485;-80
2021/09/25 12:51:51;;;;;;;4.43;2.50;;;;;;;;;;4989939;28;20527;-79
2021/09/25 12:54:19;;;;;;;3.00;2.30;;;;;;;;;;4990295;28;20487;-85
2021/09/25 12:56:48;;;;;;;3.03;2.73;;;;;;;;;;5012693;28;20465;-82
2021/09/25 12:59:17;;;;;;;2.70;2.47;;;;;;;;;;5046623;28;20474;-82
2021/09/25 13:01:45;;;;;;;2.50;2.30;;;;;;;;;;5032695;28;20442;-82
2021/09/25 13:04:27;;;;;;;3.20;2.53;;;;;;;;;;5047937;28;20782;-81
2021/09/25 13:06:57;;;;;;;2.33;2.13;;;;;;;;;;5006750;28;20453;-82
2021/09/25 13:09:25;;;;;;;3.10;2.80;;;;;;;;;;5006691;28;20485;-81
2021/09/25 13:12:07;;;;;;;3.00;2.70;;;;;;;;;;5027752;28;20445;-81
2021/09/25 13:14:34;;;;;;;2.30;2.10;;;;;;;;;;5033559;28;20478;-80
2021/09/25 13:17:01;;;;;;;3.37;2.37;;;;;;;;;;5038179;28;20456;-80
2021/09/25 13:19:28;;;;;;;3.20;2.40;;;;;;;;;;5037295;28;20857;-81
2021/09/25 13:21:58;;;;;;;3.73;2.67;;;;;;;;;;5039857;28;20438;-81
2021/09/25 13:24:25;;;;;;;2.70;2.47;;;;;;;;;;5039472;28;20450;-81
2021/09/25 13:26:52;;;;;;;3.10;2.90;;;;;;;;;;5039124;28;20749;-84
2021/09/25 13:29:20;;;;;;;3.13;2.83;;;;;;;;;;5032618;28;20806;-80
2021/09/25 13:31:47;;;;;;;2.90;2.70;;;;;;;;;;5033137;28;20943;-83
2021/09/25 13:34:14;;;;;;;3.50;2.93;;;;;;;;;;5036015;28;20485;-86
2021/09/25 13:36:41;;;;;;;2.70;2.50;;;;;;;;;;5036578;28;20433;-78
2021/09/25 13:39:10;;;;;;;2.90;2.70;;;;;;;;;;5037598;28;20466;-81
2021/09/25 13:41:37;;;;;;;2.40;2.20;;;;;;;;;;5043749;28;20471;-76
2021/09/25 13:44:04;;;;;;;2.80;2.50;;;;;;;;;;5059846;28;20448;-81
2021/09/25 13:46:31;;;;;;;3.07;2.83;;;;;;;;;;5059684;28;20950;-79
2021/09/25 13:48:59;;;;;;;3.23;2.90;;;;;;;;;;5059593;28;20445;-84
2021/09/25 13:51:26;;;;;;;2.97;2.67;;;;;;;;;;5030790;28;20802;-83
2021/09/25 13:53:53;;;;;;;3.30;2.70;;;;;;;;;;5033490;28;20516;-82
2021/09/25 13:56:22;;;;;;;2.57;2.37;;;;;;;;;;5037439;28;20799;-79
2021/09/25 13:58:49;;;;;;;2.50;2.30;;;;;;;;;;5037447;28;20446;-81
2021/09/25 14:01:16;;;;;;;3.67;3.13;;;;;;;;;;5036655;28;20477;-79
2021/09/25 14:03:43;;;;;;;2.97;2.77;;;;;;;;;;5036895;28;20468;-79
2021/09/25 14:06:10;;;;;;;4.10;2.47;;;;;;;;;;5039388;28;20452;-82
2021/09/25 14:08:37;;;;;;;2.97;2.67;;;;;;;;;;5039600;28;20785;-79
2021/09/25 14:11:05;;;;;;;3.07;2.63;;;;;;;;;;5039598;28;20462;-82
2021/09/25 14:13:33;;;;;;;2.90;2.60;;;;;;;;;;5033245;28;20990;-83
2021/09/25 14:16:00;;;;;;;3.17;2.90;;;;;;;;;;5033828;28;20442;-82
2021/09/25 14:18:28;;;;;;;3.03;2.30;;;;;;;;;;5036461;28;20456;-80
2021/09/25 14:20:55;;;;;;;3.40;2.47;;;;;;;;;;5054213;28;20489;-81
2021/09/25 14:23:22;;;;;;;3.07;2.87;;;;;;;;;;5057429;28;20437;-80
2021/09/25 14:25:49;;;;;;;3.40;3.10;;;;;;;;;;5054166;28;20798;-84
2021/09/25 14:28:19;;;;;;;3.40;2.97;;;;;;;;;;5036114;28;20457;-82
2021/09/25 14:30:48;;;;;;;2.60;2.40;;;;;;;;;;5036355;28;20461;-81
2021/09/25 14:33:15;;;;;;;2.70;2.20;;;;;;;;;;5036071;28;20915;-82
2021/09/25 14:35:43;;;;;;;3.60;2.33;;;;;;;;;;5039313;28;20482;-81
2021/09/25 14:38:10;;;;;;;2.90;2.70;;;;;;;;;;5041655;28;20437;-81
2021/09/25 14:40:37;;;;;;;3.40;3.10;;;;;;;;;;5053043;28;20988;-84
2021/09/25 14:43:06;;;;;;;5.23;2.93;;;;;;;;;;5053481;28;20441;-79
2021/09/25 14:45:33;;;;;;;2.80;2.60;;;;;;;;;;5054410;28;20460;-85
2021/09/25 14:48:03;;;;;;;3.00;2.60;;;;;;;;;;5052480;28;20445;-79